X  Schließen Metar Luftfahrt Wetterdaten     EBBR Brussels Airport
Temperatur
17°C Temperatur
11°C Taupunkt
68% Feuchtigkeit



Wind
26 KM/H
16 MPH
7 M/S
14 KTS



230°
SW
Aktuelle Wetterlage

Teilweise bewölkt Teilweise bewölkt
Luftdruck 1010.92 (hPa) - 29.85 (inHg)
Sichtweite 6.2 (Meile) - 10 (km)
Flughafen
Flughafen Code EBBR

Position : Brussels Airport
Entfernung: 14 (km)

Metar:
EBBR 290020Z 23014KT 9999 FEW029 17/11 Q1011 NOSIG

Zeit: 07-29-2021 02:20 CEST